Time;durP1;ratioP1;P1;durP2;ratioP2;P2;SDS_P1;SDS_P2;PMS_P1;PMS_P2;Temp;Humidity;BMP_temperature;BMP_pressure;BME280_temperature;BME280_humidity;BME280_pressure;Samples;Min_cycle;Max_cycle;Signal;HPM_P1;HPM_P2
2023/07/07 00:01:23;;;;;;;;;;;;;;;;;;5049517;28;20423;-75
2023/07/07 00:03:49;;;;;;;;;;;;;;;;;;5048131;28;19921;-77
2023/07/07 00:06:15;;;;;;;;;;;;;;;;;;5050172;28;20388;-75
2023/07/07 00:08:41;;;;;;;;;;;;;;;;;;5050222;28;19960;-77
2023/07/07 00:11:07;;;;;;;;;;;;;;;;;;5049622;28;20445;-77
2023/07/07 00:13:33;;;;;;;;;;;;;;;;;;5054185;28;20353;-75
2023/07/07 00:15:59;;;;;;;;;;;;;;;;;;5053075;28;19920;-75
2023/07/07 00:18:28;;;;;;;;;;;;;;;;;;5068938;28;19966;-76
2023/07/07 00:20:54;;;;;;;;;;;;;;;;;;5069417;28;19928;-75
2023/07/07 00:23:20;;;;;;;;;;;;;;;;;;5053385;28;19986;-75
2023/07/07 00:25:46;;;;;;;;;;;;;;;;;;5051988;28;19920;-78
2023/07/07 00:28:12;;;;;;;;;;;;;;;;;;5071684;28;19926;-75
2023/07/07 00:30:38;;;;;;;;;;;;;;;;;;5062020;28;19967;-76
2023/07/07 00:33:04;;;;;;;;;;;;;;;;;;5052884;28;19920;-75
2023/07/07 00:35:30;;;;;;;;;;;;;;;;;;5053965;28;19928;-75
2023/07/07 00:37:56;;;;;;;;;;;;;;;;;;5072420;28;19935;-75
2023/07/07 00:40:22;;;;;;;;;;;;;;;;;;5056874;28;19920;-75
2023/07/07 00:42:48;;;;;;;;;;;;;;;;;;5077460;28;19927;-78
2023/07/07 00:45:14;;;;;;;;;;;;;;;;;;5053755;28;19986;-75
2023/07/07 00:47:40;;;;;;;;;;;;;;;;;;5051873;28;20381;-76
2023/07/07 00:50:06;;;;;;;;;;;;;;;;;;5070896;28;19978;-76
2023/07/07 00:52:32;;;;;;;;;;;;;;;;;;5066661;28;20379;-76
2023/07/07 00:54:58;;;;;;;;;;;;;;;;;;5055752;28;19998;-76
2023/07/07 00:57:24;;;;;;;;;;;;;;;;;;5071643;28;20007;-75
2023/07/07 00:59:50;;;;;;;;;;;;;;;;;;5052958;28;20353;-79
2023/07/07 01:02:15;;;;;;;;;;;;;;;;;;5053654;28;20449;-76
2023/07/07 01:04:41;;;;;;;;;;;;;;;;;;5052629;28;20289;-76
2023/07/07 01:07:07;;;;;;;;;;;;;;;;;;5054406;28;20046;-76
2023/07/07 01:09:33;;;;;;;;;;;;;;;;;;5052767;28;19925;-76
2023/07/07 01:11:59;;;;;;;;;;;;;;;;;;5053036;28;19921;-76
2023/07/07 01:14:25;;;;;;;;;;;;;;;;;;5052686;28;20012;-77
2023/07/07 01:16:51;;;;;;;;;;;;;;;;;;5052724;28;20381;-80
2023/07/07 01:19:17;;;;;;;;;;;;;;;;;;5052367;28;19920;-77
2023/07/07 01:21:43;;;;;;;;;;;;;;;;;;5053362;28;20389;-75
2023/07/07 01:24:09;;;;;;;;;;;;;;;;;;5052610;28;19920;-77
2023/07/07 01:26:35;;;;;;;;;;;;;;;;;;5035905;28;20140;-76
2023/07/07 01:29:03;;;;;;;;;;;;;;;;;;5044922;28;19921;-77
2023/07/07 01:31:32;;;;;;;;;;;;;;;;;;5060451;28;19985;-76
2023/07/07 01:33:58;;;;;;;;;;;;;;;;;;5063355;28;19925;-75
2023/07/07 01:36:24;;;;;;;;;;;;;;;;;;5052892;28;20391;-76
2023/07/07 01:38:50;;;;;;;;;;;;;;;;;;5052342;28;20380;-75
2023/07/07 01:41:16;;;;;;;;;;;;;;;;;;5051930;28;20395;-76
2023/07/07 01:43:42;;;;;;;;;;;;;;;;;;5052502;28;19982;-76
2023/07/07 01:46:08;;;;;;;;;;;;;;;;;;5061776;28;19924;-75
2023/07/07 01:48:34;;;;;;;;;;;;;;;;;;5055089;28;20009;-76
2023/07/07 01:50:59;;;;;;;;;;;;;;;;;;5052076;28;19924;-75
2023/07/07 01:53:25;;;;;;;;;;;;;;;;;;5061979;28;19929;-76
2023/07/07 01:55:51;;;;;;;;;;;;;;;;;;5055463;28;19931;-75
2023/07/07 01:58:17;;;;;;;;;;;;;;;;;;5055483;28;19966;-77
2023/07/07 02:00:43;;;;;;;;;;;;;;;;;;5055758;28;20432;-75
2023/07/07 02:03:09;;;;;;;;;;;;;;;;;;5054534;28;20601;-76
2023/07/07 02:05:35;;;;;;;;;;;;;;;;;;5072474;28;19921;-75
2023/07/07 02:08:01;;;;;;;;;;;;;;;;;;5058039;28;19928;-75
2023/07/07 02:10:27;;;;;;;;;;;;;;;;;;5051804;28;19964;-75
2023/07/07 02:12:53;;;;;;;;;;;;;;;;;;5052082;28;19921;-76
2023/07/07 02:15:19;;;;;;;;;;;;;;;;;;5051837;28;19921;-75
2023/07/07 02:17:45;;;;;;;;;;;;;;;;;;5050932;28;19924;-77
2023/07/07 02:20:11;;;;;;;;;;;;;;;;;;5051452;28;19921;-75
2023/07/07 02:22:37;;;;;;;;;;;;;;;;;;5052033;28;19928;-76
2023/07/07 02:25:03;;;;;;;;;;;;;;;;;;5053394;28;19970;-75
2023/07/07 02:27:29;;;;;;;;;;;;;;;;;;5069294;28;20006;-77
2023/07/07 02:29:54;;;;;;;;;;;;;;;;;;5051690;28;19920;-76
2023/07/07 02:32:20;;;;;;;;;;;;;;;;;;5051413;28;19994;-76
2023/07/07 02:34:49;;;;;;;;;;;;;;;;;;5050948;28;19992;-76
2023/07/07 02:37:15;;;;;;;;;;;;;;;;;;5051395;28;19924;-76
2023/07/07 02:39:41;;;;;;;;;;;;;;;;;;5051175;28;19927;-75
2023/07/07 02:42:07;;;;;;;;;;;;;;;;;;5051306;28;19928;-75
2023/07/07 02:44:33;;;;;;;;;;;;;;;;;;5053583;28;19920;-75
2023/07/07 02:46:59;;;;;;;;;;;;;;;;;;5051180;28;19970;-81
2023/07/07 02:49:25;;;;;;;;;;;;;;;;;;5049456;28;20370;-75
2023/07/07 02:51:51;;;;;;;;;;;;;;;;;;5051638;28;19971;-75
2023/07/07 02:54:17;;;;;;;;;;;;;;;;;;5050411;28;19921;-76
2023/07/07 02:56:43;;;;;;;;;;;;;;;;;;5042819;28;19921;-75
2023/07/07 02:59:09;;;;;;;;;;;;;;;;;;5050541;28;20316;-75
2023/07/07 03:01:35;;;;;;;;;;;;;;;;;;5051425;28;19932;-75
2023/07/07 03:04:01;;;;;;;;;;;;;;;;;;5049859;28;20518;-80
2023/07/07 03:06:27;;;;;;;;;;;;;;;;;;5068501;28;19959;-75
2023/07/07 03:08:53;;;;;;;;;;;;;;;;;;5062400;28;20341;-75
2023/07/07 03:11:19;;;;;;;;;;;;;;;;;;5068185;28;19920;-75
2023/07/07 03:13:45;;;;;;;;;;;;;;;;;;5070625;28;19927;-75
2023/07/07 03:16:11;;;;;;;;;;;;;;;;;;5070279;28;19920;-75
2023/07/07 03:18:37;;;;;;;;;;;;;;;;;;5069599;28;19920;-75
2023/07/07 03:21:03;;;;;;;;;;;;;;;;;;5053529;28;19927;-80
2023/07/07 03:23:29;;;;;;;;;;;;;;;;;;5050843;28;20396;-75
2023/07/07 03:25:55;;;;;;;;;;;;;;;;;;5050444;28;20278;-75
2023/07/07 03:28:21;;;;;;;;;;;;;;;;;;5052544;28;19920;-75
2023/07/07 03:30:48;;;;;;;;;;;;;;;;;;5052277;28;20410;-75
2023/07/07 03:33:14;;;;;;;;;;;;;;;;;;5049219;28;19924;-75
2023/07/07 03:35:40;;;;;;;;;;;;;;;;;;5050755;28;20011;-75
2023/07/07 03:38:06;;;;;;;;;;;;;;;;;;5064627;28;19929;-80
2023/07/07 03:40:32;;;;;;;;;;;;;;;;;;5053530;28;19931;-75
2023/07/07 03:42:58;;;;;;;;;;;;;;;;;;5070448;28;20022;-75
2023/07/07 03:45:24;;;;;;;;;;;;;;;;;;5053485;28;19924;-75
2023/07/07 03:47:50;;;;;;;;;;;;;;;;;;5069352;28;19924;-76
2023/07/07 03:50:16;;;;;;;;;;;;;;;;;;5070054;28;19928;-76
2023/07/07 03:52:42;;;;;;;;;;;;;;;;;;5049504;28;20019;-76
2023/07/07 03:55:08;;;;;;;;;;;;;;;;;;5049653;28;19925;-79
2023/07/07 03:57:34;;;;;;;;;;;;;;;;;;5065590;28;19974;-75
2023/07/07 04:00:00;;;;;;;;;;;;;;;;;;5069845;28;19924;-76
2023/07/07 04:02:26;;;;;;;;;;;;;;;;;;5053119;28;19935;-76
2023/07/07 04:04:52;;;;;;;;;;;;;;;;;;5052778;28;19951;-75
2023/07/07 04:07:18;;;;;;;;;;;;;;;;;;5069550;28;19931;-76
2023/07/07 04:09:44;;;;;;;;;;;;;;;;;;5053114;28;20357;-75
2023/07/07 04:12:10;;;;;;;;;;;;;;;;;;5069918;28;20319;-79
2023/07/07 04:14:35;;;;;;;;;;;;;;;;;;5061168;28;19943;-75
2023/07/07 04:17:01;;;;;;;;;;;;;;;;;;5049878;28;19951;-75
2023/07/07 04:19:27;;;;;;;;;;;;;;;;;;5048682;28;19999;-75
2023/07/07 04:21:53;;;;;;;;;;;;;;;;;;5051306;28;19925;-75
2023/07/07 04:24:20;;;;;;;;;;;;;;;;;;5069088;28;19925;-75
2023/07/07 04:26:47;;;;;;;;;;;;;;;;;;5069942;28;19987;-75
2023/07/07 04:29:13;;;;;;;;;;;;;;;;;;5052726;28;20002;-75
2023/07/07 04:31:42;;;;;;;;;;;;;;;;;;5050206;28;20447;-76
2023/07/07 04:34:08;;;;;;;;;;;;;;;;;;5058330;28;20360;-75
2023/07/07 04:36:34;;;;;;;;;;;;;;;;;;5069745;28;19966;-76
2023/07/07 04:39:00;;;;;;;;;;;;;;;;;;5052025;28;20251;-77
2023/07/07 04:41:26;;;;;;;;;;;;;;;;;;5049131;28;19999;-75
2023/07/07 04:43:52;;;;;;;;;;;;;;;;;;5049539;28;19925;-75
2023/07/07 04:46:18;;;;;;;;;;;;;;;;;;5056046;28;19920;-75
2023/07/07 04:48:44;;;;;;;;;;;;;;;;;;5068970;28;19920;-75
2023/07/07 04:51:10;;;;;;;;;;;;;;;;;;5049946;28;19927;-75
2023/07/07 04:53:36;;;;;;;;;;;;;;;;;;5049457;28;19971;-75
2023/07/07 04:56:02;;;;;;;;;;;;;;;;;;5050907;28;20557;-76
2023/07/07 04:58:28;;;;;;;;;;;;;;;;;;5068922;28;20276;-75
2023/07/07 05:00:54;;;;;;;;;;;;;;;;;;5063155;28;19925;-76
2023/07/07 05:03:20;;;;;;;;;;;;;;;;;;5031419;28;19921;-75
2023/07/07 05:05:46;;;;;;;;;;;;;;;;;;5049711;28;19931;-76
2023/07/07 05:08:12;;;;;;;;;;;;;;;;;;5049931;28;19927;-76
2023/07/07 05:10:38;;;;;;;;;;;;;;;;;;5051421;28;20350;-76
2023/07/07 05:13:03;;;;;;;;;;;;;;;;;;5064478;28;19967;-76
2023/07/07 05:15:30;;;;;;;;;;;;;;;;;;5052833;28;19920;-76
2023/07/07 05:17:56;;;;;;;;;;;;;;;;;;5051912;28;20011;-76
2023/07/07 05:20:22;;;;;;;;;;;;;;;;;;5052691;28;19999;-77
2023/07/07 05:22:48;;;;;;;;;;;;;;;;;;5071414;28;19921;-76
2023/07/07 05:25:14;;;;;;;;;;;;;;;;;;5072024;28;19927;-80
2023/07/07 05:27:40;;;;;;;;;;;;;;;;;;5068174;28;20402;-75
2023/07/07 05:30:06;;;;;;;;;;;;;;;;;;5069533;28;20388;-76
2023/07/07 05:32:32;;;;;;;;;;;;;;;;;;5052539;28;20257;-79
2023/07/07 05:34:58;;;;;;;;;;;;;;;;;;5052241;28;20356;-76
2023/07/07 05:37:24;;;;;;;;;;;;;;;;;;5052452;28;19964;-75
2023/07/07 05:39:50;;;;;;;;;;;;;;;;;;5065753;28;19974;-76
2023/07/07 05:42:16;;;;;;;;;;;;;;;;;;5056085;28;19931;-81
2023/07/07 05:44:42;;;;;;;;;;;;;;;;;;5072405;28;19920;-75
2023/07/07 05:47:08;;;;;;;;;;;;;;;;;;5072559;28;19974;-76
2023/07/07 05:49:34;;;;;;;;;;;;;;;;;;5071410;28;19985;-75
2023/07/07 05:52:00;;;;;;;;;;;;;;;;;;5072843;28;20242;-76
2023/07/07 05:54:26;;;;;;;;;;;;;;;;;;5053781;28;19925;-76
2023/07/07 05:56:54;;;;;;;;;;;;;;;;;;5052536;28;19926;-76
2023/07/07 05:59:20;;;;;;;;;;;;;;;;;;5051755;28;19982;-76
2023/07/07 06:01:46;;;;;;;;;;;;;;;;;;5052571;28;19925;-75
2023/07/07 06:04:12;;;;;;;;;;;;;;;;;;5051608;28;19927;-77
2023/07/07 06:06:39;;;;;;;;;;;;;;;;;;5060581;28;19920;-75
2023/07/07 06:09:06;;;;;;;;;;;;;;;;;;5072320;28;20357;-76
2023/07/07 06:11:32;;;;;;;;;;;;;;;;;;5068492;28;20381;-75
2023/07/07 06:13:58;;;;;;;;;;;;;;;;;;5071844;28;20013;-76
2023/07/07 06:16:24;;;;;;;;;;;;;;;;;;5071811;28;20349;-75
2023/07/07 06:18:50;;;;;;;;;;;;;;;;;;5051879;28;20334;-75
2023/07/07 06:21:16;;;;;;;;;;;;;;;;;;5053983;28;20034;-76
2023/07/07 06:23:42;;;;;;;;;;;;;;;;;;5070533;28;19924;-76
2023/07/07 06:26:08;;;;;;;;;;;;;;;;;;5071250;28;19946;-76
2023/07/07 06:28:34;;;;;;;;;;;;;;;;;;5060896;28;19924;-75
2023/07/07 06:31:00;;;;;;;;;;;;;;;;;;5060977;28;19950;-76
2023/07/07 06:33:26;;;;;;;;;;;;;;;;;;5068955;28;20011;-75
2023/07/07 06:35:52;;;;;;;;;;;;;;;;;;5069114;28;20467;-75
2023/07/07 06:38:17;;;;;;;;;;;;;;;;;;5071389;28;19924;-69
2023/07/07 06:40:43;;;;;;;;;;;;;;;;;;5052800;28;20011;-69
2023/07/07 06:43:09;;;;;;;;;;;;;;;;;;5058233;28;20422;-72
2023/07/07 06:45:37;;;;;;;;;;;;;;;;;;5072236;28;20361;-73
2023/07/07 06:48:03;;;;;;;;;;;;;;;;;;5089442;28;19920;-72
2023/07/07 06:50:29;;;;;;;;;;;;;;;;;;5089335;28;20190;-72
2023/07/07 06:52:55;;;;;;;;;;;;;;;;;;5083675;28;19970;-72
2023/07/07 06:55:21;;;;;;;;;;;;;;;;;;5083793;28;19946;-72
2023/07/07 06:57:47;;;;;;;;;;;;;;;;;;5069525;28;19927;-72
2023/07/07 07:00:13;;;;;;;;;;;;;;;;;;5070251;28;19999;-72
2023/07/07 07:02:39;;;;;;;;;;;;;;;;;;5090315;28;19946;-72
2023/07/07 07:05:05;;;;;;;;;;;;;;;;;;5090705;28;19926;-73
2023/07/07 07:07:31;;;;;;;;;;;;;;;;;;5090089;28;20014;-72
2023/07/07 07:09:57;;;;;;;;;;;;;;;;;;5091150;28;19928;-72
2023/07/07 07:12:23;;;;;;;;;;;;;;;;;;5065351;28;20483;-72
2023/07/07 07:14:49;;;;;;;;;;;;;;;;;;5079653;28;20292;-71
2023/07/07 07:17:15;;;;;;;;;;;;;;;;;;5073931;28;19921;-73
2023/07/07 07:19:41;;;;;;;;;;;;;;;;;;5079719;28;20358;-70
2023/07/07 07:22:07;;;;;;;;;;;;;;;;;;5073446;28;19927;-70
2023/07/07 07:24:33;;;;;;;;;;;;;;;;;;5079733;28;20686;-73
2023/07/07 07:26:59;;;;;;;;;;;;;;;;;;5090619;28;19943;-73
2023/07/07 07:29:24;;;;;;;;;;;;;;;;;;5091198;28;19920;-73
2023/07/07 07:31:50;;;;;;;;;;;;;;;;;;5090620;28;19967;-73
2023/07/07 07:34:16;;;;;;;;;;;;;;;;;;5089643;28;20319;-73
2023/07/07 07:36:42;;;;;;;;;;;;;;;;;;5085746;28;19942;-73
2023/07/07 07:39:08;;;;;;;;;;;;;;;;;;5073254;28;19920;-73
2023/07/07 07:41:34;;;;;;;;;;;;;;;;;;5090752;28;19927;-73
2023/07/07 07:44:00;;;;;;;;;;;;;;;;;;5090260;28;19927;-73
2023/07/07 07:46:26;;;;;;;;;;;;;;;;;;5090119;28;19924;-73
2023/07/07 07:48:52;;;;;;;;;;;;;;;;;;5066296;28;19927;-73
2023/07/07 07:51:18;;;;;;;;;;;;;;;;;;5082863;28;19977;-74
2023/07/07 07:53:44;;;;;;;;;;;;;;;;;;5089657;28;19997;-73
2023/07/07 07:56:10;;;;;;;;;;;;;;;;;;5091086;28;19923;-72
2023/07/07 07:58:37;;;;;;;;;;;;;;;;;;5090645;28;20368;-73
2023/07/07 08:01:03;;;;;;;;;;;;;;;;;;5076215;28;19921;-72
2023/07/07 08:03:29;;;;;;;;;;;;;;;;;;5075541;28;19920;-78
2023/07/07 08:05:55;;;;;;;;;;;;;;;;;;5075863;28;19920;-72
2023/07/07 08:08:21;;;;;;;;;;;;;;;;;;5087276;28;19919;-74
2023/07/07 08:10:47;;;;;;;;;;;;;;;;;;5078274;28;19920;-73
2023/07/07 08:13:13;;;;;;;;;;;;;;;;;;5089468;28;19931;-73
2023/07/07 08:15:39;;;;;;;;;;;;;;;;;;5089784;28;20053;-73
2023/07/07 08:18:05;;;;;;;;;;;;;;;;;;5082502;28;19920;-75
2023/07/07 08:20:31;;;;;;;;;;;;;;;;;;5071077;28;20024;-72
2023/07/07 08:22:57;;;;;;;;;;;;;;;;;;5067928;28;19924;-68
2023/07/07 08:25:23;;;;;;;;;;;;;;;;;;5069931;28;20420;-70
2023/07/07 08:27:50;;;;;;;;;;;;;;;;;;5070201;28;20292;-70
2023/07/07 08:30:16;;;;;;;;;;;;;;;;;;5070240;28;19931;-71
2023/07/07 08:32:42;;;;;;;;;;;;;;;;;;5069921;28;19920;-71
2023/07/07 08:35:08;;;;;;;;;;;;;;;;;;5053104;28;19920;-71
2023/07/07 08:37:34;;;;;;;;;;;;;;;;;;5050692;28;19967;-74
2023/07/07 08:40:00;;;;;;;;;;;;;;;;;;5050532;28;19927;-67
2023/07/07 08:42:26;;;;;;;;;;;;;;;;;;5059480;28;19924;-73
2023/07/07 08:44:52;;;;;;;;;;;;;;;;;;5068450;28;19921;-73
2023/07/07 08:47:18;;;;;;;;;;;;;;;;;;5071118;28;20024;-74
2023/07/07 08:49:45;;;;;;;;;;;;;;;;;;5071701;28;19920;-73
2023/07/07 08:52:10;;;;;;;;;;;;;;;;;;5073527;28;19994;-72
2023/07/07 08:54:36;;;;;;;;;;;;;;;;;;5072759;28;20093;-72
2023/07/07 08:57:02;;;;;;;;;;;;;;;;;;5073560;28;19927;-71
2023/07/07 08:59:30;;;;;;;;;;;;;;;;;;5074368;28;19921;-73
2023/07/07 09:01:56;;;;;;;;;;;;;;;;;;5073334;28;19920;-71
2023/07/07 09:04:22;;;;;;;;;;;;;;;;;;5073699;28;19931;-70
2023/07/07 09:06:48;;;;;;;;;;;;;;;;;;5073177;28;20069;-71
2023/07/07 09:09:14;;;;;;;;;;;;;;;;;;5071723;28;19931;-70
2023/07/07 09:11:40;;;;;;;;;;;;;;;;;;5072344;28;20361;-73
2023/07/07 09:14:05;;;;;;;;;;;;;;;;;;5073882;28;20498;-72
2023/07/07 09:16:31;;;;;;;;;;;;;;;;;;5057807;28;20464;-73
2023/07/07 09:18:57;;;;;;;;;;;;;;;;;;5052792;28;20076;-73
2023/07/07 09:21:23;;;;;;;;;;;;;;;;;;5053271;28;19921;-72
2023/07/07 09:23:49;;;;;;;;;;;;;;;;;;5052803;28;19920;-72
2023/07/07 09:26:15;;;;;;;;;;;;;;;;;;5052596;28;19963;-72
2023/07/07 09:28:41;;;;;;;;;;;;;;;;;;5059774;28;19924;-73
2023/07/07 09:31:08;;;;;;;;;;;;;;;;;;5068777;28;19928;-72
2023/07/07 09:33:34;;;;;;;;;;;;;;;;;;5052241;28;20384;-73
2023/07/07 09:36:00;;;;;;;;;;;;;;;;;;5052528;28;19921;-72
2023/07/07 09:38:26;;;;;;;;;;;;;;;;;;5053845;28;20019;-74
2023/07/07 09:40:52;;;;;;;;;;;;;;;;;;5052005;28;20011;-72
2023/07/07 09:43:18;;;;;;;;;;;;;;;;;;5069033;28;19921;-72
2023/07/07 09:45:44;;;;;;;;;;;;;;;;;;5053396;28;19982;-72
2023/07/07 09:48:10;;;;;;;;;;;;;;;;;;5051826;28;19928;-73
2023/07/07 09:50:36;;;;;;;;;;;;;;;;;;5070694;28;20274;-72
2023/07/07 09:53:02;;;;;;;;;;;;;;;;;;5067800;28;20315;-73
2023/07/07 09:55:28;;;;;;;;;;;;;;;;;;5072076;28;19928;-72
2023/07/07 09:57:55;;;;;;;;;;;;;;;;;;5063841;28;19924;-73
2023/07/07 10:00:21;;;;;;;;;;;;;;;;;;5053421;28;20411;-73
2023/07/07 10:02:47;;;;;;;;;;;;;;;;;;5071111;28;19923;-73
2023/07/07 10:05:32;;;;;;;;;;;;;;;;;;5089214;28;19930;-72
2023/07/07 10:07:58;;;;;;;;;;;;;;;;;;5072563;28;19931;-72
2023/07/07 10:10:24;;;;;;;;;;;;;;;;;;5087760;28;19924;-72
2023/07/07 10:12:50;;;;;;;;;;;;;;;;;;5079577;28;19932;-72
2023/07/07 10:15:16;;;;;;;;;;;;;;;;;;5053322;28;20133;-72
2023/07/07 10:17:42;;;;;;;;;;;;;;;;;;5060055;28;20441;-72
2023/07/07 10:20:07;;;;;;;;;;;;;;;;;;5072830;28;20446;-72
2023/07/07 10:22:35;;;;;;;;;;;;;;;;;;5072289;28;19930;-72
2023/07/07 10:25:01;;;;;;;;;;;;;;;;;;5072165;28;20003;-72
2023/07/07 10:27:27;;;;;;;;;;;;;;;;;;5071362;28;19947;-72
2023/07/07 10:29:53;;;;;;;;;;;;;;;;;;5052266;28;20377;-72
2023/07/07 10:32:19;;;;;;;;;;;;;;;;;;5052098;28;19925;-72
2023/07/07 10:34:45;;;;;;;;;;;;;;;;;;5051865;28;19931;-76
2023/07/07 10:37:10;;;;;;;;;;;;;;;;;;5056528;28;19928;-72
2023/07/07 10:39:36;;;;;;;;;;;;;;;;;;5059569;28;20055;-72
2023/07/07 10:42:02;;;;;;;;;;;;;;;;;;5070525;28;19931;-72
2023/07/07 10:44:28;;;;;;;;;;;;;;;;;;5071854;28;19971;-72
2023/07/07 10:46:54;;;;;;;;;;;;;;;;;;5071091;28;20369;-72
2023/07/07 10:49:24;;;;;;;;;;;;;;;;;;5070696;28;20396;-72
2023/07/07 10:51:50;;;;;;;;;;;;;;;;;;5072185;28;19924;-72
2023/07/07 10:54:16;;;;;;;;;;;;;;;;;;5072485;28;19931;-74
2023/07/07 10:56:41;;;;;;;;;;;;;;;;;;5072215;28;19931;-72
2023/07/07 10:59:07;;;;;;;;;;;;;;;;;;5056195;28;19995;-72
2023/07/07 11:01:33;;;;;;;;;;;;;;;;;;5052840;28;19931;-72
2023/07/07 11:03:59;;;;;;;;;;;;;;;;;;5065556;28;20450;-73
2023/07/07 11:06:25;;;;;;;;;;;;;;;;;;5061359;28;19924;-70
2023/07/07 11:08:51;;;;;;;;;;;;;;;;;;5071411;28;19924;-75
2023/07/07 11:11:17;;;;;;;;;;;;;;;;;;5071083;28;19975;-72
2023/07/07 11:13:43;;;;;;;;;;;;;;;;;;5070837;28;19924;-73
2023/07/07 11:16:09;;;;;;;;;;;;;;;;;;5071574;28;19935;-72
2023/07/07 11:18:35;;;;;;;;;;;;;;;;;;5068061;28;19967;-73
2023/07/07 11:21:01;;;;;;;;;;;;;;;;;;5079624;28;19928;-72
2023/07/07 11:23:27;;;;;;;;;;;;;;;;;;5071938;28;19924;-73
2023/07/07 11:25:53;;;;;;;;;;;;;;;;;;5058789;28;19964;-76
2023/07/07 11:28:19;;;;;;;;;;;;;;;;;;5069422;28;19924;-72
2023/07/07 11:30:45;;;;;;;;;;;;;;;;;;5067145;28;19924;-72
2023/07/07 11:33:11;;;;;;;;;;;;;;;;;;5062986;28;19928;-72
2023/07/07 11:35:38;;;;;;;;;;;;;;;;;;5084558;28;19934;-72
2023/07/07 11:38:04;;;;;;;;;;;;;;;;;;5081376;28;19920;-72
2023/07/07 11:40:29;;;;;;;;;;;;;;;;;;5090153;28;19946;-72
2023/07/07 11:42:56;;;;;;;;;;;;;;;;;;5090633;28;19993;-73
2023/07/07 11:45:22;;;;;;;;;;;;;;;;;;5087252;28;19971;-72
2023/07/07 11:47:48;;;;;;;;;;;;;;;;;;5068965;28;19959;-73
2023/07/07 11:50:13;;;;;;;;;;;;;;;;;;5086573;28;19927;-73
2023/07/07 11:52:39;;;;;;;;;;;;;;;;;;5081039;28;19924;-72
2023/07/07 11:55:06;;;;;;;;;;;;;;;;;;5085995;28;19920;-73
2023/07/07 11:57:32;;;;;;;;;;;;;;;;;;5091415;28;19920;-74
2023/07/07 11:59:58;;;;;;;;;;;;;;;;;;5089590;28;19930;-73
2023/07/07 12:02:24;;;;;;;;;;;;;;;;;;5091469;28;19927;-73
2023/07/07 12:04:50;;;;;;;;;;;;;;;;;;5089866;28;19924;-74
2023/07/07 12:07:16;;;;;;;;;;;;;;;;;;5090482;28;19927;-71
2023/07/07 12:09:42;;;;;;;;;;;;;;;;;;5075636;28;19920;-71
2023/07/07 12:12:08;;;;;;;;;;;;;;;;;;5090623;28;19926;-69
2023/07/07 12:14:34;;;;;;;;;;;;;;;;;;5076755;28;20014;-72
2023/07/07 12:17:00;;;;;;;;;;;;;;;;;;5090609;28;19920;-70
2023/07/07 12:19:26;;;;;;;;;;;;;;;;;;5071535;28;19946;-71
2023/07/07 12:21:52;;;;;;;;;;;;;;;;;;5086061;28;20010;-73
2023/07/07 12:24:19;;;;;;;;;;;;;;;;;;5086705;28;20063;-71
2023/07/07 12:26:45;;;;;;;;;;;;;;;;;;5075151;28;20287;-70
2023/07/07 12:29:11;;;;;;;;;;;;;;;;;;5084537;28;20357;-69
2023/07/07 12:31:37;;;;;;;;;;;;;;;;;;5089650;28;19970;-69
2023/07/07 12:34:03;;;;;;;;;;;;;;;;;;5067990;28;19924;-70
2023/07/07 12:36:30;;;;;;;;;;;;;;;;;;5094890;28;19924;-69
2023/07/07 12:38:56;;;;;;;;;;;;;;;;;;5095033;28;19928;-70
2023/07/07 12:41:22;;;;;;;;;;;;;;;;;;5080110;28;22461;-69
2023/07/07 12:43:48;;;;;;;;;;;;;;;;;;5070998;28;19970;-74
2023/07/07 12:46:14;;;;;;;;;;;;;;;;;;5081423;28;19967;-73
2023/07/07 12:48:40;;;;;;;;;;;;;;;;;;5077381;28;19921;-74
2023/07/07 12:51:07;;;;;;;;;;;;;;;;;;5074574;28;19931;-73
2023/07/07 12:53:33;;;;;;;;;;;;;;;;;;5086198;28;19920;-74
2023/07/07 12:55:59;;;;;;;;;;;;;;;;;;5087497;28;19983;-74
2023/07/07 12:58:25;;;;;;;;;;;;;;;;;;5085920;28;19994;-75
2023/07/07 13:00:51;;;;;;;;;;;;;;;;;;5081507;28;19921;-73
2023/07/07 13:03:17;;;;;;;;;;;;;;;;;;5079250;28;20471;-73
2023/07/07 13:05:43;;;;;;;;;;;;;;;;;;5092884;28;20422;-73
2023/07/07 13:08:09;;;;;;;;;;;;;;;;;;5091555;28;20485;-74
2023/07/07 13:10:35;;;;;;;;;;;;;;;;;;5066696;28;19943;-73
2023/07/07 13:13:01;;;;;;;;;;;;;;;;;;5077934;28;19923;-74
2023/07/07 13:15:27;;;;;;;;;;;;;;;;;;5080973;28;19927;-73
2023/07/07 13:17:54;;;;;;;;;;;;;;;;;;5092852;28;20293;-74
2023/07/07 13:20:20;;;;;;;;;;;;;;;;;;5092354;28;19976;-74
2023/07/07 13:22:46;;;;;;;;;;;;;;;;;;5080104;28;19932;-74
2023/07/07 13:25:12;;;;;;;;;;;;;;;;;;5093066;28;19924;-73
2023/07/07 13:27:38;;;;;;;;;;;;;;;;;;5091706;28;19923;-75
2023/07/07 13:30:04;;;;;;;;;;;;;;;;;;5092486;28;19924;-77
2023/07/07 13:32:30;;;;;;;;;;;;;;;;;;5094069;28;19923;-74
2023/07/07 13:34:56;;;;;;;;;;;;;;;;;;5090903;28;19931;-74
2023/07/07 13:37:22;;;;;;;;;;;;;;;;;;5081019;28;19924;-74
2023/07/07 13:39:48;;;;;;;;;;;;;;;;;;5072604;28;19925;-75
2023/07/07 13:42:14;;;;;;;;;;;;;;;;;;5091383;28;19930;-75
2023/07/07 13:44:40;;;;;;;;;;;;;;;;;;5092212;28;19967;-74
2023/07/07 13:47:06;;;;;;;;;;;;;;;;;;5093499;28;19981;-77
2023/07/07 13:49:32;;;;;;;;;;;;;;;;;;5090002;28;19973;-75
2023/07/07 13:51:58;;;;;;;;;;;;;;;;;;5093007;28;20407;-74
2023/07/07 13:54:24;;;;;;;;;;;;;;;;;;5091499;28;19930;-75
2023/07/07 13:56:50;;;;;;;;;;;;;;;;;;5086714;28;20007;-74
2023/07/07 13:59:16;;;;;;;;;;;;;;;;;;5074937;28;19924;-74
2023/07/07 14:01:42;;;;;;;;;;;;;;;;;;5092160;28;19942;-74
2023/07/07 14:04:08;;;;;;;;;;;;;;;;;;5067036;28;19920;-77
2023/07/07 14:06:34;;;;;;;;;;;;;;;;;;5091508;28;19924;-74
2023/07/07 14:09:00;;;;;;;;;;;;;;;;;;5092986;28;19943;-75
2023/07/07 14:11:26;;;;;;;;;;;;;;;;;;5090455;28;20011;-74
2023/07/07 14:13:53;;;;;;;;;;;;;;;;;;5073057;28;20003;-74
2023/07/07 14:16:19;;;;;;;;;;;;;;;;;;5091752;28;19927;-74
2023/07/07 14:18:45;;;;;;;;;;;;;;;;;;5090498;28;19920;-75
2023/07/07 14:21:11;;;;;;;;;;;;;;;;;;5090782;28;19920;-77
2023/07/07 14:23:37;;;;;;;;;;;;;;;;;;5073904;28;20062;-75
2023/07/07 14:26:03;;;;;;;;;;;;;;;;;;5090214;28;20006;-74
2023/07/07 14:28:29;;;;;;;;;;;;;;;;;;5090552;28;19920;-74
2023/07/07 14:30:55;;;;;;;;;;;;;;;;;;5091959;28;20387;-74
2023/07/07 14:33:21;;;;;;;;;;;;;;;;;;5078011;28;19955;-74
2023/07/07 14:35:47;;;;;;;;;;;;;;;;;;5071227;28;20368;-74
2023/07/07 14:38:13;;;;;;;;;;;;;;;;;;5081679;28;20692;-77
2023/07/07 14:40:39;;;;;;;;;;;;;;;;;;5089747;28;19931;-75
2023/07/07 14:43:05;;;;;;;;;;;;;;;;;;5070727;28;19956;-74
2023/07/07 14:45:31;;;;;;;;;;;;;;;;;;5053740;28;19991;-75
2023/07/07 14:47:56;;;;;;;;;;;;;;;;;;5082211;28;19928;-75
2023/07/07 14:50:22;;;;;;;;;;;;;;;;;;5090345;28;19926;-75
2023/07/07 14:52:49;;;;;;;;;;;;;;;;;;5086711;28;19967;-74
2023/07/07 14:55:15;;;;;;;;;;;;;;;;;;5090489;28;19920;-79
2023/07/07 14:57:41;;;;;;;;;;;;;;;;;;5090035;28;19920;-75
2023/07/07 15:00:07;;;;;;;;;;;;;;;;;;5091526;28;19923;-75
2023/07/07 15:02:33;;;;;;;;;;;;;;;;;;5067854;28;20284;-75
2023/07/07 15:04:59;;;;;;;;;;;;;;;;;;5060208;28;20416;-75
2023/07/07 15:07:25;;;;;;;;;;;;;;;;;;5070070;28;20003;-76
2023/07/07 15:09:51;;;;;;;;;;;;;;;;;;5081759;28;19920;-75
2023/07/07 15:12:17;;;;;;;;;;;;;;;;;;5068520;28;19947;-76
2023/07/07 15:14:43;;;;;;;;;;;;;;;;;;5079995;28;19945;-75
2023/07/07 15:17:09;;;;;;;;;;;;;;;;;;5090838;28;20019;-75
2023/07/07 15:19:36;;;;;;;;;;;;;;;;;;5089316;28;19942;-76
2023/07/07 15:22:02;;;;;;;;;;;;;;;;;;5090872;28;19924;-75
2023/07/07 15:24:28;;;;;;;;;;;;;;;;;;5090084;28;19924;-75
2023/07/07 15:26:53;;;;;;;;;;;;;;;;;;5091697;28;20010;-76
2023/07/07 15:29:19;;;;;;;;;;;;;;;;;;5089954;28;19924;-76
2023/07/07 15:31:46;;;;;;;;;;;;;;;;;;5082426;28;20439;-77
2023/07/07 15:34:12;;;;;;;;;;;;;;;;;;5089480;28;20482;-76
2023/07/07 15:36:38;;;;;;;;;;;;;;;;;;5090081;28;19928;-76
2023/07/07 15:39:04;;;;;;;;;;;;;;;;;;5083328;28;20031;-76
2023/07/07 15:41:29;;;;;;;;;;;;;;;;;;5089237;28;20676;-75
2023/07/07 15:43:55;;;;;;;;;;;;;;;;;;5077091;28;19924;-73
2023/07/07 15:46:21;;;;;;;;;;;;;;;;;;5090203;28;19924;-75
2023/07/07 15:48:47;;;;;;;;;;;;;;;;;;5089010;28;19924;-76
2023/07/07 15:51:13;;;;;;;;;;;;;;;;;;5090912;28;19951;-76
2023/07/07 15:53:39;;;;;;;;;;;;;;;;;;5075125;28;19928;-75
2023/07/07 15:56:05;;;;;;;;;;;;;;;;;;5076010;28;19929;-77
2023/07/07 15:58:31;;;;;;;;;;;;;;;;;;5090049;28;19924;-76
2023/07/07 16:00:57;;;;;;;;;;;;;;;;;;5090259;28;19920;-75
2023/07/07 16:03:23;;;;;;;;;;;;;;;;;;5083983;28;20022;-75
2023/07/07 16:05:49;;;;;;;;;;;;;;;;;;5089960;28;19927;-76
2023/07/07 16:08:15;;;;;;;;;;;;;;;;;;5089591;28;19920;-75
2023/07/07 16:10:41;;;;;;;;;;;;;;;;;;5089990;28;19931;-76
2023/07/07 16:13:07;;;;;;;;;;;;;;;;;;5065309;28;19925;-76
2023/07/07 16:15:33;;;;;;;;;;;;;;;;;;5076509;28;19921;-76
2023/07/07 16:17:59;;;;;;;;;;;;;;;;;;5068792;28;19925;-76
2023/07/07 16:20:25;;;;;;;;;;;;;;;;;;5069405;28;19963;-75
2023/07/07 16:22:51;;;;;;;;;;;;;;;;;;5065669;28;19920;-76
2023/07/07 16:25:17;;;;;;;;;;;;;;;;;;5069899;28;20288;-74
2023/07/07 16:27:43;;;;;;;;;;;;;;;;;;5068966;28;19920;-73
2023/07/07 16:30:09;;;;;;;;;;;;;;;;;;5070328;28;19920;-72
2023/07/07 16:32:34;;;;;;;;;;;;;;;;;;5068079;28;19921;-73
2023/07/07 16:35:00;;;;;;;;;;;;;;;;;;5065591;28;19921;-73
2023/07/07 16:37:26;;;;;;;;;;;;;;;;;;5070395;28;19924;-73